Time;durP1;ratioP1;P1;durP2;ratioP2;P2;SDS_P1;SDS_P2;PMS_P1;PMS_P2;Temp;Humidity;BMP_temperature;BMP_pressure;BME280_temperature;BME280_humidity;BME280_pressure;Samples;Min_cycle;Max_cycle;Signal;HPM_P1;HPM_P2
2022/01/29 00:02:18;;;;;;;33.23;11.90;;;3.30;99.90;;;;;;5054109;28;20052;-69
2022/01/29 00:04:46;;;;;;;32.33;13.67;;;3.30;99.90;;;;;;5054109;28;20052;-69
2022/01/29 00:07:13;;;;;;;30.47;14.07;;;3.30;99.90;;;;;;5054226;28;20110;-69
2022/01/29 00:09:40;;;;;;;28.17;12.47;;;3.20;99.90;;;;;;5054227;28;20501;-69
2022/01/29 00:12:09;;;;;;;29.83;13.43;;;3.30;99.90;;;;;;5054015;28;20057;-69
2022/01/29 00:14:36;;;;;;;28.50;13.17;;;3.30;99.90;;;;;;5054316;28;20064;-69
2022/01/29 00:17:04;;;;;;;28.63;13.67;;;3.30;99.90;;;;;;5053972;28;20141;-69
2022/01/29 00:19:31;;;;;;;36.33;15.20;;;3.40;99.90;;;;;;5054104;28;20055;-69
2022/01/29 00:22:02;;;;;;;30.40;13.43;;;3.40;99.90;;;;;;5053908;28;20416;-69
2022/01/29 00:24:29;;;;;;;27.57;13.77;;;3.40;99.90;;;;;;5054103;28;20059;-69
2022/01/29 00:26:56;;;;;;;42.47;14.93;;;3.40;99.90;;;;;;5053638;28;20096;-69
2022/01/29 00:29:25;;;;;;;30.07;13.83;;;3.40;99.90;;;;;;5053689;28;20392;-69
2022/01/29 00:31:51;;;;;;;34.07;14.77;;;3.40;99.90;;;;;;5053815;28;20084;-69
2022/01/29 00:34:18;;;;;;;32.83;14.70;;;3.40;99.90;;;;;;5053630;28;20049;-69
2022/01/29 00:36:45;;;;;;;32.50;14.37;;;3.50;99.90;;;;;;5053603;28;20151;-70
2022/01/29 00:39:12;;;;;;;34.23;14.60;;;3.50;99.90;;;;;;5053916;28;20139;-70
2022/01/29 00:41:39;;;;;;;31.10;12.77;;;3.50;99.90;;;;;;5053186;28;20079;-69
2022/01/29 00:44:06;;;;;;;27.17;13.57;;;3.50;99.90;;;;;;5053623;28;20136;-70
2022/01/29 00:46:38;;;;;;;27.30;12.30;;;3.50;99.90;;;;;;5053272;28;20136;-70
2022/01/29 00:49:05;;;;;;;25.47;12.20;;;3.50;99.90;;;;;;5053492;28;20053;-70
2022/01/29 00:51:32;;;;;;;29.87;13.70;;;3.50;99.90;;;;;;5053356;28;20148;-70
2022/01/29 00:53:59;;;;;;;27.17;12.77;;;3.50;99.90;;;;;;5053412;28;20633;-70
2022/01/29 00:56:26;;;;;;;33.80;13.83;;;3.60;99.90;;;;;;5052990;28;20136;-69
2022/01/29 00:58:53;;;;;;;29.80;13.43;;;3.60;99.90;;;;;;5053240;28;20084;-69
2022/01/29 01:01:20;;;;;;;31.83;14.40;;;3.60;99.90;;;;;;5053287;28;20045;-69
2022/01/29 01:03:48;;;;;;;26.50;12.87;;;3.60;99.90;;;;;;5053403;28;20135;-70
2022/01/29 01:06:15;;;;;;;28.63;12.90;;;3.60;99.90;;;;;;5052828;28;20045;-69
2022/01/29 01:08:42;;;;;;;33.33;12.80;;;3.70;99.90;;;;;;5053478;28;20444;-69
2022/01/29 01:11:09;;;;;;;28.47;12.80;;;3.70;99.90;;;;;;5053005;28;20139;-69
2022/01/29 01:13:37;;;;;;;35.00;13.43;;;3.70;99.90;;;;;;5052911;28;20079;-69
2022/01/29 01:16:04;;;;;;;24.90;10.83;;;3.70;99.90;;;;;;5052630;28;20564;-69
2022/01/29 01:18:31;;;;;;;32.60;12.73;;;3.70;99.90;;;;;;5052849;28;20051;-69
2022/01/29 01:20:59;;;;;;;28.07;12.60;;;3.80;99.90;;;;;;5052741;28;20056;-69
2022/01/29 01:23:26;;;;;;;30.30;12.93;;;3.70;99.90;;;;;;5052588;28;20111;-69
2022/01/29 01:25:53;;;;;;;30.83;12.23;;;3.70;99.90;;;;;;5052425;28;20084;-69
2022/01/29 01:28:20;;;;;;;28.90;12.70;;;3.70;99.90;;;;;;5052743;28;20131;-69
2022/01/29 01:30:47;;;;;;;27.10;12.93;;;3.70;99.90;;;;;;5052650;28;20483;-69
2022/01/29 01:33:14;;;;;;;30.47;13.10;;;3.80;99.90;;;;;;5053169;28;20132;-69
2022/01/29 01:35:42;;;;;;;25.63;12.13;;;3.80;99.90;;;;;;5053607;28;20128;-69
2022/01/29 01:38:15;;;;;;;44.83;12.83;;;3.80;99.90;;;;;;5053124;28;20107;-69
2022/01/29 01:40:49;;;;;;;26.17;11.50;;;3.80;99.90;;;;;;5052707;28;20056;-69
2022/01/29 01:43:16;;;;;;;25.47;11.30;;;3.80;99.90;;;;;;5052356;28;20545;-69
2022/01/29 01:45:44;;;;;;;24.43;11.23;;;3.90;99.90;;;;;;5052164;28;20464;-69
2022/01/29 01:48:11;;;;;;;22.43;10.67;;;3.90;99.90;;;;;;5052279;28;20094;-69
2022/01/29 01:50:39;;;;;;;28.47;11.70;;;3.90;99.90;;;;;;5052221;28;20055;-70
2022/01/29 01:53:07;;;;;;;26.37;11.77;;;3.90;99.90;;;;;;5051528;28;20283;-69
2022/01/29 01:55:35;;;;;;;24.57;10.97;;;3.90;99.90;;;;;;5052333;28;20135;-69
2022/01/29 01:58:02;;;;;;;24.73;10.97;;;3.90;99.90;;;;;;5052233;28;20136;-69
2022/01/29 02:00:30;;;;;;;23.40;10.37;;;3.90;99.90;;;;;;5052303;28;20088;-69
2022/01/29 02:02:57;;;;;;;27.60;12.00;;;3.90;99.90;;;;;;5051685;28;20063;-69
2022/01/29 02:05:24;;;;;;;22.53;10.13;;;3.90;99.90;;;;;;5051784;28;20131;-70
2022/01/29 02:07:52;;;;;;;22.00;10.53;;;3.90;99.90;;;;;;5052114;28;20045;-69
2022/01/29 02:10:20;;;;;;;23.30;11.20;;;3.80;99.90;;;;;;5051929;28;20072;-69
2022/01/29 02:12:50;;;;;;;24.77;11.40;;;3.90;99.90;;;;;;5052114;28;20190;-69
2022/01/29 02:15:18;;;;;;;29.23;12.37;;;3.90;99.90;;;;;;5051962;28;20057;-69
2022/01/29 02:17:46;;;;;;;27.30;12.10;;;3.90;99.90;;;;;;5053320;28;20501;-69
2022/01/29 02:20:14;;;;;;;26.03;12.53;;;3.90;99.90;;;;;;5053882;28;20501;-69
2022/01/29 02:22:43;;;;;;;31.53;14.17;;;3.80;99.90;;;;;;5052233;28;20436;-70
2022/01/29 02:25:28;;;;;;;23.13;11.97;;;3.70;99.90;;;;;;5051713;28;20131;-69
2022/01/29 02:27:56;;;;;;;31.83;14.23;;;3.70;99.90;;;;;;5051712;28;20053;-70
2022/01/29 02:30:23;;;;;;;30.00;13.03;;;3.70;99.90;;;;;;5052032;28;20124;-70
2022/01/29 02:32:50;;;;;;;25.67;12.63;;;3.70;99.90;;;;;;5051449;28;20087;-69
2022/01/29 02:35:17;;;;;;;27.13;13.43;;;3.70;99.90;;;;;;5050994;28;20132;-69
2022/01/29 02:37:50;;;;;;;27.20;14.00;;;3.70;99.90;;;;;;5051689;28;20084;-69
2022/01/29 02:40:17;;;;;;;29.23;13.90;;;3.70;99.90;;;;;;5051723;28;20053;-69
2022/01/29 02:42:45;;;;;;;30.17;13.57;;;3.60;99.90;;;;;;5051326;28;20513;-69
2022/01/29 02:45:12;;;;;;;27.67;12.77;;;3.60;99.90;;;;;;5051606;28;20417;-69
2022/01/29 02:47:39;;;;;;;31.53;13.43;;;3.60;99.90;;;;;;5054763;28;20131;-69
2022/01/29 02:50:07;;;;;;;25.27;11.53;;;3.60;99.90;;;;;;5054508;28;20488;-69
2022/01/29 02:52:34;;;;;;;29.03;12.73;;;3.60;99.90;;;;;;5054680;28;20045;-69
2022/01/29 02:55:03;;;;;;;31.70;13.33;;;3.60;99.90;;;;;;5052701;28;20140;-69
2022/01/29 02:57:30;;;;;;;29.03;12.37;;;3.50;99.90;;;;;;5051704;28;20493;-69
2022/01/29 03:00:00;;;;;;;27.40;12.50;;;3.50;99.90;;;;;;5051487;28;20416;-69
2022/01/29 03:02:28;;;;;;;27.10;12.30;;;3.60;99.90;;;;;;5051405;28;20056;-69
2022/01/29 03:04:56;;;;;;;26.77;12.50;;;3.60;99.90;;;;;;5052559;28;20056;-69
2022/01/29 03:07:23;;;;;;;27.60;12.73;;;3.50;99.90;;;;;;5055554;28;20198;-69
2022/01/29 03:09:50;;;;;;;31.37;12.27;;;3.50;99.90;;;;;;5055318;28;20135;-71
2022/01/29 03:12:18;;;;;;;28.13;12.40;;;3.50;99.90;;;;;;5055394;28;20558;-69
2022/01/29 03:14:45;;;;;;;23.67;10.83;;;3.50;99.90;;;;;;5055006;28;20132;-69
2022/01/29 03:17:12;;;;;;;24.10;11.20;;;3.50;99.90;;;;;;5055111;28;20076;-69
2022/01/29 03:19:39;;;;;;;24.93;11.97;;;3.50;99.90;;;;;;5055253;28;20132;-69
2022/01/29 03:22:06;;;;;;;29.63;12.57;;;3.60;99.90;;;;;;5055095;28;20049;-69
2022/01/29 03:24:33;;;;;;;29.57;12.80;;;3.50;99.90;;;;;;5054920;28;20539;-70
2022/01/29 03:27:00;;;;;;;27.73;13.20;;;3.60;99.90;;;;;;5055316;28;20128;-69
2022/01/29 03:29:28;;;;;;;25.43;12.33;;;3.60;99.90;;;;;;5055074;28;20525;-69
2022/01/29 03:31:55;;;;;;;29.20;10.90;;;3.60;99.90;;;;;;5055096;28;20504;-69
2022/01/29 03:34:22;;;;;;;25.70;11.10;;;3.50;99.90;;;;;;5054988;28;20132;-69
2022/01/29 03:36:49;;;;;;;26.90;12.17;;;3.60;99.90;;;;;;5054618;28;20156;-69
2022/01/29 03:39:16;;;;;;;30.83;12.23;;;3.50;99.90;;;;;;5055025;28;20059;-69
2022/01/29 03:41:43;;;;;;;25.43;11.53;;;3.60;99.90;;;;;;5054907;28;20132;-69
2022/01/29 03:44:10;;;;;;;23.60;12.50;;;3.60;99.90;;;;;;5054702;28;20049;-69
2022/01/29 03:46:38;;;;;;;22.97;11.07;;;3.60;99.90;;;;;;5054502;28;20128;-70
2022/01/29 03:49:05;;;;;;;23.60;10.30;;;3.60;99.90;;;;;;5054683;28;20664;-70
2022/01/29 03:51:32;;;;;;;23.37;10.57;;;3.60;99.90;;;;;;5054375;28;20591;-69
2022/01/29 03:53:59;;;;;;;23.87;10.13;;;3.60;99.90;;;;;;5054685;28;20159;-69
2022/01/29 03:56:26;;;;;;;22.30;10.10;;;3.50;99.90;;;;;;5054584;28;20106;-70
2022/01/29 03:58:53;;;;;;;19.50;10.00;;;3.60;99.90;;;;;;5054618;28;20450;-70
2022/01/29 04:01:20;;;;;;;24.07;9.80;;;3.60;99.90;;;;;;5057583;28;20076;-70
2022/01/29 04:03:48;;;;;;;21.73;10.67;;;3.60;99.90;;;;;;5052792;28;20053;-69
2022/01/29 04:06:15;;;;;;;21.73;9.90;;;3.60;99.90;;;;;;5034123;28;20144;-70
2022/01/29 04:08:43;;;;;;;22.37;9.13;;;3.50;99.90;;;;;;5034560;28;20057;-70
2022/01/29 04:11:12;;;;;;;22.93;9.60;;;3.60;99.90;;;;;;5045481;28;20140;-70
2022/01/29 04:13:42;;;;;;;19.57;8.90;;;3.50;99.90;;;;;;5046011;28;20065;-70
2022/01/29 04:16:09;;;;;;;49.83;11.57;;;3.50;99.90;;;;;;5053342;28;20063;-70
2022/01/29 04:18:36;;;;;;;22.87;10.17;;;3.50;99.90;;;;;;5053894;28;20072;-70
2022/01/29 04:21:05;;;;;;;22.37;9.47;;;3.50;99.90;;;;;;5054005;28;20140;-69
2022/01/29 04:23:32;;;;;;;27.53;10.40;;;3.50;99.90;;;;;;5046693;28;20561;-69
2022/01/29 04:26:01;;;;;;;19.60;8.93;;;3.50;99.90;;;;;;5034080;28;20133;-70
2022/01/29 04:28:31;;;;;;;21.03;10.37;;;3.50;99.90;;;;;;5034206;28;20057;-70
2022/01/29 04:31:01;;;;;;;21.10;9.87;;;3.50;99.90;;;;;;5033781;28;20525;-70
2022/01/29 04:33:31;;;;;;;21.43;10.70;;;3.60;99.90;;;;;;5033994;28;20057;-70
2022/01/29 04:35:59;;;;;;;22.30;8.87;;;3.60;99.90;;;;;;5033755;28;20132;-69
2022/01/29 04:38:29;;;;;;;21.73;9.50;;;3.60;99.90;;;;;;5034115;28;20133;-70
2022/01/29 04:40:58;;;;;;;20.97;9.63;;;3.60;99.90;;;;;;5033774;28;20137;-70
2022/01/29 04:43:25;;;;;;;19.53;8.60;;;3.50;99.90;;;;;;5033624;28;20132;-70
2022/01/29 04:45:52;;;;;;;23.80;9.43;;;3.50;99.90;;;;;;5033743;28;20072;-70
2022/01/29 04:48:19;;;;;;;21.07;8.60;;;3.50;99.90;;;;;;5033675;28;20128;-70
2022/01/29 04:50:46;;;;;;;22.80;9.63;;;3.50;99.90;;;;;;5033597;28;20133;-70
2022/01/29 04:53:13;;;;;;;19.73;7.93;;;3.50;99.90;;;;;;5033607;28;20140;-70
2022/01/29 04:55:41;;;;;;;18.93;8.30;;;3.50;99.90;;;;;;5033372;28;20132;-68
2022/01/29 04:58:08;;;;;;;21.57;9.13;;;3.50;99.90;;;;;;5033962;28;20469;-70
2022/01/29 05:00:35;;;;;;;18.27;8.53;;;3.50;99.90;;;;;;5033729;28;20137;-69
2022/01/29 05:03:08;;;;;;;18.33;8.60;;;3.50;99.90;;;;;;5033483;28;20136;-69
2022/01/29 05:05:35;;;;;;;22.20;9.00;;;3.40;99.90;;;;;;5033286;28;20124;-70
2022/01/29 05:08:02;;;;;;;20.23;8.80;;;3.50;99.90;;;;;;5033574;28;20049;-69
2022/01/29 05:10:29;;;;;;;21.27;8.87;;;3.50;99.90;;;;;;5033343;28;20433;-69
2022/01/29 05:13:01;;;;;;;18.63;8.57;;;3.50;99.90;;;;;;5033888;28;20107;-69
2022/01/29 05:15:36;;;;;;;22.80;9.83;;;3.50;99.90;;;;;;5033482;28;20053;-70
2022/01/29 05:29:03;;;;;;;19.13;8.97;;;3.50;99.90;;;;;;5045383;28;20083;-69
2022/01/29 05:31:30;;;;;;;21.13;9.03;;;3.40;99.90;;;;;;5044480;28;20096;-69
2022/01/29 05:33:57;;;;;;;21.93;8.50;;;3.40;99.90;;;;;;5045309;28;20088;-69
2022/01/29 05:36:25;;;;;;;23.23;9.67;;;3.40;99.90;;;;;;5045756;28;20084;-69
2022/01/29 05:38:51;;;;;;;23.93;9.63;;;3.40;99.90;;;;;;5045253;28;20132;-69
2022/01/29 05:41:18;;;;;;;21.00;8.63;;;3.40;99.90;;;;;;5046285;28;20052;-69
2022/01/29 05:43:46;;;;;;;20.13;9.93;;;3.50;99.90;;;;;;5043618;28;20422;-69
2022/01/29 05:46:16;;;;;;;22.07;9.47;;;3.50;99.90;;;;;;5044962;28;20049;-69
2022/01/29 05:48:43;;;;;;;26.83;9.13;;;3.40;99.90;;;;;;5047142;28;20072;-69
2022/01/29 05:51:11;;;;;;;21.73;9.27;;;3.50;99.90;;;;;;5047981;28;20112;-69
2022/01/29 05:53:38;;;;;;;21.27;8.33;;;3.50;99.90;;;;;;5047637;28;20077;-69
2022/01/29 05:56:06;;;;;;;20.03;9.17;;;3.40;99.90;;;;;;5047513;28;20101;-69
2022/01/29 05:58:33;;;;;;;19.80;8.63;;;3.40;99.90;;;;;;5048710;28;20073;-69
2022/01/29 06:01:00;;;;;;;22.67;9.70;;;3.40;99.90;;;;;;5048851;28;20144;-69
2022/01/29 06:03:29;;;;;;;22.37;10.10;;;3.40;99.90;;;;;;5049037;28;20055;-69
2022/01/29 06:05:55;;;;;;;21.57;9.40;;;3.40;99.90;;;;;;5047403;28;20084;-69
2022/01/29 06:08:23;;;;;;;23.23;9.23;;;3.40;99.90;;;;;;5047737;28;20083;-69
2022/01/29 06:10:50;;;;;;;24.03;10.60;;;3.40;99.90;;;;;;5046838;28;20049;-70
2022/01/29 06:13:17;;;;;;;27.90;11.33;;;3.50;99.90;;;;;;5046814;28;20085;-69
2022/01/29 06:15:46;;;;;;;25.07;10.37;;;3.40;99.90;;;;;;5047331;28;20072;-69
2022/01/29 06:18:16;;;;;;;21.63;10.17;;;3.40;99.90;;;;;;5047319;28;20077;-69
2022/01/29 06:20:46;;;;;;;26.90;10.10;;;3.50;99.90;;;;;;5048033;28;20057;-69
2022/01/29 06:23:14;;;;;;;29.93;10.77;;;3.50;99.90;;;;;;5049048;28;20049;-69
2022/01/29 06:25:43;;;;;;;22.57;10.67;;;3.50;99.90;;;;;;5047218;28;20057;-69
2022/01/29 06:28:11;;;;;;;22.43;10.30;;;3.50;99.90;;;;;;5036408;28;20232;-69
2022/01/29 06:30:38;;;;;;;24.70;10.60;;;3.50;99.90;;;;;;5033425;28;20049;-69
2022/01/29 06:33:09;;;;;;;23.73;10.77;;;3.50;99.90;;;;;;5033711;28;20128;-69
2022/01/29 06:35:37;;;;;;;24.67;10.73;;;3.50;99.90;;;;;;5033123;28;20502;-69
2022/01/29 06:38:06;;;;;;;23.77;10.57;;;3.50;99.90;;;;;;5033299;28;20056;-69
2022/01/29 06:40:33;;;;;;;28.93;11.60;;;3.50;99.90;;;;;;5032649;28;20556;-69
2022/01/29 06:43:01;;;;;;;24.20;11.07;;;3.50;99.90;;;;;;5032969;28;20100;-69
2022/01/29 06:45:29;;;;;;;20.17;9.30;;;3.50;99.90;;;;;;5033505;28;20049;-69
2022/01/29 06:47:56;;;;;;;23.60;10.37;;;3.50;99.90;;;;;;5033225;28;20053;-69
2022/01/29 06:50:23;;;;;;;28.03;11.20;;;3.50;99.90;;;;;;5033667;28;20136;-69
2022/01/29 06:52:50;;;;;;;26.90;11.13;;;3.50;99.90;;;;;;5032730;28;20081;-69
2022/01/29 06:55:19;;;;;;;23.07;10.47;;;3.50;99.90;;;;;;5033156;28;20109;-69
2022/01/29 06:57:46;;;;;;;25.97;11.93;;;3.60;99.90;;;;;;5032986;28;20132;-69
2022/01/29 07:00:14;;;;;;;25.13;10.97;;;3.60;99.90;;;;;;5032991;28;20132;-69
2022/01/29 07:02:41;;;;;;;24.93;10.70;;;3.60;99.90;;;;;;5032887;28;20140;-69
2022/01/29 07:05:10;;;;;;;26.17;10.07;;;3.50;99.90;;;;;;5032236;28;20088;-69
2022/01/29 07:07:38;;;;;;;26.13;10.37;;;3.50;99.90;;;;;;5032924;28;20484;-69
2022/01/29 07:10:06;;;;;;;26.67;10.60;;;3.50;99.90;;;;;;5032103;28;20140;-69
2022/01/29 07:12:34;;;;;;;25.90;12.03;;;3.50;99.90;;;;;;5031877;28;20488;-69
2022/01/29 07:15:01;;;;;;;26.17;11.53;;;3.50;99.90;;;;;;5032283;28;20096;-69
2022/01/29 07:17:28;;;;;;;27.17;11.40;;;3.50;99.90;;;;;;5032824;28;20111;-69
2022/01/29 07:19:55;;;;;;;26.33;11.40;;;3.50;99.90;;;;;;5032780;28;20292;-69
2022/01/29 07:22:22;;;;;;;29.03;11.27;;;3.50;99.90;;;;;;5032626;28;20116;-69
2022/01/29 07:24:50;;;;;;;29.90;12.93;;;3.60;99.90;;;;;;5032221;28;20501;-69
2022/01/29 07:27:17;;;;;;;27.53;12.53;;;3.60;99.90;;;;;;5032493;28;20110;-69
2022/01/29 07:29:45;;;;;;;31.13;13.07;;;3.60;99.90;;;;;;5032364;28;20050;-69
2022/01/29 07:32:12;;;;;;;20.70;9.63;;;3.60;99.90;;;;;;5032121;28;20128;-69
2022/01/29 07:34:40;;;;;;;27.67;11.23;;;3.60;99.90;;;;;;5032273;28;20053;-69
2022/01/29 07:37:07;;;;;;;30.13;11.87;;;3.60;99.90;;;;;;5032213;28;20088;-69
2022/01/29 07:39:34;;;;;;;21.80;10.33;;;3.60;99.90;;;;;;5032143;28;20099;-69
2022/01/29 07:42:01;;;;;;;28.37;12.00;;;3.60;99.90;;;;;;5031467;28;20142;-69
2022/01/29 07:44:28;;;;;;;22.57;9.57;;;3.60;99.90;;;;;;5031265;28;20413;-69
2022/01/29 07:46:57;;;;;;;23.93;10.47;;;3.60;99.90;;;;;;5031784;28;20133;-70
2022/01/29 07:49:24;;;;;;;23.47;10.83;;;3.60;99.90;;;;;;5032642;28;20398;-69
2022/01/29 07:51:50;;;;;;;28.33;12.10;;;3.60;99.90;;;;;;5033371;28;20053;-69
2022/01/29 07:54:17;;;;;;;27.77;10.60;;;3.70;99.90;;;;;;5034939;28;20159;-69
2022/01/29 07:56:44;;;;;;;27.70;12.03;;;3.60;99.90;;;;;;5034838;28;20132;-69
2022/01/29 07:59:11;;;;;;;27.87;11.67;;;3.60;99.90;;;;;;5034695;28;20089;-69
2022/01/29 08:01:38;;;;;;;23.83;11.00;;;3.70;99.90;;;;;;5035077;28;20137;-69
2022/01/29 08:04:06;;;;;;;28.30;11.57;;;3.60;99.90;;;;;;5034365;28;20053;-69
2022/01/29 08:06:33;;;;;;;19.00;8.50;;;3.60;99.90;;;;;;5034575;28;20085;-69
2022/01/29 08:09:00;;;;;;;29.77;11.70;;;3.60;99.90;;;;;;5034750;28;20065;-69
2022/01/29 08:11:27;;;;;;;32.37;13.50;;;3.60;99.90;;;;;;5034223;28;20093;-69
2022/01/29 08:13:54;;;;;;;27.27;11.40;;;3.60;99.90;;;;;;5034194;28;20577;-69
2022/01/29 08:16:21;;;;;;;25.70;12.20;;;3.60;99.90;;;;;;5034806;28;20108;-69
2022/01/29 08:18:48;;;;;;;26.77;11.47;;;3.60;99.90;;;;;;5034815;28;20136;-69
2022/01/29 08:21:17;;;;;;;29.03;12.60;;;3.70;99.90;;;;;;5034416;28;20132;-69
2022/01/29 08:23:45;;;;;;;26.17;11.47;;;3.60;99.90;;;;;;5034102;28;20059;-69
2022/01/29 08:26:13;;;;;;;29.40;12.63;;;3.70;99.90;;;;;;5033954;28;20072;-69
2022/01/29 08:28:40;;;;;;;27.53;11.53;;;3.70;99.90;;;;;;5034069;28;20475;-69
2022/01/29 08:31:07;;;;;;;24.87;11.17;;;3.70;99.90;;;;;;5034032;28;20137;-69
2022/01/29 08:33:35;;;;;;;35.03;12.17;;;3.60;99.90;;;;;;5033974;28;20049;-70
2022/01/29 08:36:25;;;;;;;28.03;12.60;;;3.60;99.90;;;;;;5033743;28;20123;-69
2022/01/29 08:38:51;;;;;;;29.50;13.07;;;3.60;99.90;;;;;;5033963;28;20124;-69
2022/01/29 08:41:18;;;;;;;28.63;12.37;;;3.70;99.90;;;;;;5033714;28;20052;-69
2022/01/29 08:43:46;;;;;;;23.47;10.17;;;3.70;99.90;;;;;;5033475;28;20057;-69
2022/01/29 08:46:13;;;;;;;28.23;12.10;;;3.60;99.90;;;;;;5034007;28;20053;-69
2022/01/29 08:48:40;;;;;;;27.90;12.17;;;3.60;99.90;;;;;;5033687;28;20112;-69
2022/01/29 08:51:07;;;;;;;31.97;12.27;;;3.50;99.90;;;;;;5033302;28;20132;-69
2022/01/29 08:53:35;;;;;;;27.87;12.07;;;3.50;99.90;;;;;;5033599;28;20129;-69
2022/01/29 08:56:03;;;;;;;29.50;13.47;;;3.50;99.90;;;;;;5033040;28;20053;-69
2022/01/29 08:58:30;;;;;;;33.47;11.97;;;3.60;99.90;;;;;;5033301;28;20528;-69
2022/01/29 09:00:58;;;;;;;33.17;12.20;;;3.50;99.90;;;;;;5033256;28;20140;-69
2022/01/29 09:03:25;;;;;;;29.30;12.80;;;3.50;99.90;;;;;;5032850;28;20084;-69
2022/01/29 09:05:52;;;;;;;29.10;11.27;;;3.50;99.90;;;;;;5032994;28;20136;-69
2022/01/29 09:08:19;;;;;;;29.50;12.77;;;3.50;99.90;;;;;;5033229;28;20060;-69
2022/01/29 09:10:48;;;;;;;33.17;13.73;;;3.50;99.90;;;;;;5033116;28;20049;-69
2022/01/29 09:13:15;;;;;;;30.03;12.87;;;3.50;99.90;;;;;;5033354;28;20085;-69
2022/01/29 09:15:42;;;;;;;27.63;11.60;;;3.50;99.90;;;;;;5032789;28;20104;-69
2022/01/29 09:18:09;;;;;;;27.03;11.57;;;3.40;99.90;;;;;;5033394;28;20049;-69
2022/01/29 09:20:36;;;;;;;25.37;11.93;;;3.40;99.90;;;;;;5032943;28;20137;-69
2022/01/29 09:23:03;;;;;;;25.37;12.00;;;3.50;99.90;;;;;;5032686;28;20092;-69
2022/01/29 09:25:30;;;;;;;23.47;10.67;;;3.40;99.90;;;;;;5032578;28;20132;-69
2022/01/29 09:27:58;;;;;;;22.20;9.67;;;3.40;99.90;;;;;;5033069;28;20166;-69
2022/01/29 09:30:26;;;;;;;21.77;9.70;;;3.40;99.90;;;;;;5032792;28;20085;-69
2022/01/29 09:32:53;;;;;;;27.10;12.00;;;3.40;99.90;;;;;;5032764;28;20053;-69
2022/01/29 09:35:19;;;;;;;25.37;10.87;;;3.40;99.90;;;;;;5032392;28;20049;-69
2022/01/29 09:37:47;;;;;;;23.93;10.23;;;3.50;99.90;;;;;;5032580;28;20152;-69
2022/01/29 09:40:14;;;;;;;24.20;10.87;;;3.40;99.90;;;;;;5032601;28;20610;-69
2022/01/29 09:42:44;;;;;;;26.33;11.23;;;3.40;99.90;;;;;;5032366;28;20136;-69
2022/01/29 09:45:13;;;;;;;26.73;11.07;;;3.50;99.90;;;;;;5032173;28;20548;-69
2022/01/29 09:47:42;;;;;;;30.97;12.23;;;3.50;99.90;;;;;;5032475;28;20049;-69
2022/01/29 09:50:10;;;;;;;24.87;12.00;;;3.50;99.90;;;;;;5032496;28;20131;-69
2022/01/29 09:52:37;;;;;;;21.03;9.97;;;3.60;99.90;;;;;;5032507;28;20115;-69
2022/01/29 09:55:05;;;;;;;24.33;10.13;;;3.60;99.90;;;;;;5032107;28;20060;-69
2022/01/29 09:57:32;;;;;;;26.03;10.23;;;3.50;99.90;;;;;;5034526;28;20081;-69
2022/01/29 09:59:59;;;;;;;21.37;9.90;;;3.50;99.90;;;;;;5033591;28;20084;-70
2022/01/29 10:02:28;;;;;;;26.37;10.90;;;3.60;99.90;;;;;;5033673;28;20053;-71
2022/01/29 10:04:57;;;;;;;28.10;10.20;;;3.60;99.90;;;;;;5032453;28;20136;-68
2022/01/29 10:07:26;;;;;;;18.97;8.70;;;3.60;99.90;;;;;;5157381;22;20044;-69
2022/01/29 10:09:53;;;;;;;24.17;9.87;;;3.70;99.90;;;;;;5072285;28;20052;-69
2022/01/29 10:12:24;;;;;;;22.20;9.23;;;3.60;99.90;;;;;;5072066;28;20142;-68
2022/01/29 10:14:54;;;;;;;23.73;9.80;;;3.60;99.90;;;;;;5071703;28;20057;-68
2022/01/29 10:17:43;;;;;;;19.40;8.87;;;3.60;99.90;;;;;;5071794;28;20468;-68
2022/01/29 10:20:12;;;;;;;20.43;8.60;;;3.60;99.90;;;;;;5071914;28;20085;-68
2022/01/29 10:22:40;;;;;;;18.03;8.20;;;3.60;99.90;;;;;;5071691;28;20140;-72
2022/01/29 10:25:11;;;;;;;22.53;8.83;;;3.60;99.90;;;;;;5071696;28;20139;-68
2022/01/29 10:27:38;;;;;;;21.43;9.07;;;3.60;99.90;;;;;;5072084;28;20057;-68
2022/01/29 10:30:09;;;;;;;21.80;8.03;;;3.60;99.90;;;;;;5071679;28;20486;-68
2022/01/29 10:32:36;;;;;;;20.13;8.77;;;3.60;99.90;;;;;;5071955;28;20139;-68
2022/01/29 10:35:05;;;;;;;17.07;7.70;;;3.70;99.90;;;;;;5071447;28;20508;-68
2022/01/29 10:37:32;;;;;;;18.60;8.23;;;3.70;99.90;;;;;;5072261;28;20483;-68
2022/01/29 10:40:00;;;;;;;15.63;6.90;;;3.70;99.90;;;;;;5071768;28;20148;-68
2022/01/29 10:42:30;;;;;;;15.50;7.10;;;3.70;99.90;;;;;;5071728;28;20135;-68
2022/01/29 10:44:59;;;;;;;16.53;7.13;;;3.60;99.90;;;;;;5071730;28;20144;-68
2022/01/29 10:47:27;;;;;;;17.93;7.53;;;3.70;99.90;;;;;;5071916;28;20478;-68
2022/01/29 10:49:56;;;;;;;16.97;7.17;;;3.80;99.90;;;;;;5071578;28;20088;-68
2022/01/29 10:52:30;;;;;;;18.20;8.13;;;3.80;99.90;;;;;;5071581;28;20056;-68
2022/01/29 10:55:02;;;;;;;15.87;7.33;;;3.90;99.90;;;;;;5071425;28;20055;-69
2022/01/29 10:57:34;;;;;;;15.93;6.77;;;3.90;99.90;;;;;;5071849;28;20052;-69
2022/01/29 11:00:05;;;;;;;17.30;7.03;;;3.90;99.90;;;;;;5071784;28;20132;-69
2022/01/29 11:02:32;;;;;;;15.60;7.07;;;3.90;99.90;;;;;;5071583;28;20126;-69
2022/01/29 11:05:01;;;;;;;14.03;6.37;;;3.90;99.90;;;;;;5071299;28;20136;-69
2022/01/29 11:07:30;;;;;;;11.57;5.10;;;4.00;99.90;;;;;;5071418;28;20139;-68
2022/01/29 11:10:00;;;;;;;13.87;6.67;;;3.90;99.90;;;;;;5071613;28;20081;-68
2022/01/29 11:12:30;;;;;;;15.10;6.77;;;3.80;99.90;;;;;;5072079;28;20131;-68
2022/01/29 11:14:59;;;;;;;14.67;6.60;;;3.90;99.90;;;;;;5071399;28;20057;-68
2022/01/29 11:17:27;;;;;;;13.40;5.97;;;3.90;99.90;;;;;;5071203;28;20071;-68
2022/01/29 11:19:54;;;;;;;14.40;6.50;;;3.90;99.90;;;;;;5071290;28;20449;-69
2022/01/29 11:22:23;;;;;;;14.77;6.40;;;4.00;99.90;;;;;;5071138;28;20135;-69
2022/01/29 11:24:57;;;;;;;13.10;6.30;;;4.00;99.90;;;;;;5071472;28;20055;-69
2022/01/29 11:27:26;;;;;;;11.47;5.70;;;4.10;99.90;;;;;;5073439;28;20151;-69
2022/01/29 11:30:01;;;;;;;13.63;6.17;;;4.20;99.90;;;;;;5075323;28;20102;-68
2022/01/29 11:32:34;;;;;;;13.50;5.67;;;4.20;99.90;;;;;;5075164;28;20084;-69
2022/01/29 11:35:12;;;;;;;13.97;5.80;;;4.20;99.90;;;;;;5075136;28;20076;-68
2022/01/29 11:37:42;;;;;;;14.10;6.00;;;4.20;99.90;;;;;;5075092;28;20080;-68
2022/01/29 11:40:20;;;;;;;15.63;5.20;;;4.10;99.90;;;;;;5074913;28;20548;-68
2022/01/29 11:43:08;;;;;;;13.97;5.60;;;4.00;99.90;;;;;;5074780;28;20053;-69
2022/01/29 11:45:44;;;;;;;12.17;5.63;;;4.10;99.90;;;;;;5074932;28;20045;-69
2022/01/29 11:48:55;;;;;;;10.93;4.72;;;4.10;99.90;;;;;;5075195;28;20139;-68
2022/01/29 11:51:42;;;;;;;14.90;5.40;;;4.10;99.90;;;;;;5074975;28;20056;-68
2022/01/29 11:54:09;;;;;;;12.68;5.97;;;4.20;99.90;;;;;;5074469;28;20151;-68
2022/01/29 11:56:40;;;;;;;10.63;5.33;;;4.20;99.90;;;;;;5074382;28;20131;-68
2022/01/29 11:59:30;;;;;;;13.23;6.03;;;4.20;99.90;;;;;;5074812;28;20056;-68
2022/01/29 12:02:00;;;;;;;10.77;5.37;;;4.20;99.90;;;;;;5074397;28;20389;-68
2022/01/29 12:05:07;;;;;;;10.63;4.97;;;4.20;99.90;;;;;;5074529;28;20067;-70
2022/01/29 12:07:39;;;;;;;10.77;5.37;;;4.20;99.90;;;;;;5074620;28;20109;-68
2022/01/29 12:10:09;;;;;;;12.60;5.70;;;4.30;99.90;;;;;;5074343;28;20483;-68
2022/01/29 12:12:39;;;;;;;10.57;4.90;;;4.30;99.90;;;;;;5074252;28;20110;-68
2022/01/29 12:15:37;;;;;;;11.87;5.53;;;4.50;99.90;;;;;;5074277;28;20503;-68
2022/01/29 12:18:23;;;;;;;11.67;4.23;;;4.50;99.90;;;;;;5074266;28;20500;-68
2022/01/29 12:20:50;;;;;;;10.60;4.77;;;4.40;99.90;;;;;;5074113;28;20135;-68
2022/01/29 12:23:17;;;;;;;12.50;5.37;;;4.40;99.90;;;;;;5074115;28;20584;-69
2022/01/29 12:25:53;;;;;;;11.47;4.83;;;4.40;99.90;;;;;;5074053;28;20139;-68
2022/01/29 12:28:22;;;;;;;10.00;4.77;;;4.40;99.90;;;;;;5074171;28;20055;-68
2022/01/29 12:30:49;;;;;;;10.73;4.10;;;4.40;99.90;;;;;;5073896;28;20048;-68
2022/01/29 12:33:17;;;;;;;11.60;5.27;;;4.40;99.90;;;;;;5073900;28;20457;-68
2022/01/29 12:35:46;;;;;;;10.57;4.57;;;4.40;99.90;;;;;;5074119;28;20078;-68
2022/01/29 12:38:15;;;;;;;9.83;4.70;;;4.40;99.90;;;;;;5074414;28;20052;-68
2022/01/29 12:40:51;;;;;;;11.60;4.97;;;4.40;99.90;;;;;;5075650;28;20136;-68
2022/01/29 12:43:26;;;;;;;9.90;4.03;;;4.40;99.90;;;;;;5074467;28;20570;-68
2022/01/29 12:45:54;;;;;;;10.50;4.90;;;4.40;99.90;;;;;;5073886;28;20053;-68
2022/01/29 12:48:22;;;;;;;11.10;4.87;;;4.50;99.90;;;;;;5073729;28;20049;-69
2022/01/29 12:50:49;;;;;;;9.30;4.33;;;4.50;99.90;;;;;;5073518;28;20139;-68
2022/01/29 12:53:19;;;;;;;12.50;5.13;;;4.50;99.90;;;;;;5073538;28;20076;-68
2022/01/29 12:56:00;;;;;;;11.90;5.03;;;4.50;99.90;;;;;;5078096;28;20562;-68
2022/01/29 12:58:31;;;;;;;11.80;4.20;;;4.50;99.90;;;;;;5073888;28;20064;-68
2022/01/29 13:01:09;;;;;;;9.60;4.27;;;4.60;99.90;;;;;;5073800;28;20076;-68